createdAt,value
2022-11-02T00:02:03.250Z,21.77
2022-11-02T00:04:53.196Z,21.52
2022-11-02T00:07:43.010Z,21.48
2022-11-02T00:10:32.411Z,21.00
2022-11-02T00:13:21.845Z,21.40
2022-11-02T00:16:15.432Z,20.38
2022-11-02T00:19:05.625Z,22.05
2022-11-02T00:21:57.869Z,20.10
2022-11-02T00:24:47.098Z,21.70
2022-11-02T00:27:37.509Z,17.55
2022-11-02T00:30:27.251Z,15.07
2022-11-02T00:33:16.289Z,18.27
2022-11-02T00:36:05.298Z,19.15
2022-11-02T00:38:55.421Z,19.25
2022-11-02T00:41:44.633Z,20.70
2022-11-02T00:44:34.637Z,34.47
2022-11-02T00:47:24.427Z,23.77
2022-11-02T00:50:15.153Z,21.58
2022-11-02T00:53:04.298Z,22.80
2022-11-02T00:55:54.864Z,23.08
2022-11-02T00:58:44.161Z,20.35
2022-11-02T01:01:33.968Z,21.67
2022-11-02T01:04:23.794Z,18.17
2022-11-02T01:07:18.645Z,14.15
2022-11-02T01:10:09.732Z,12.57
2022-11-02T01:12:58.694Z,11.30
2022-11-02T01:15:48.179Z,9.13
2022-11-02T01:18:37.343Z,10.43
2022-11-02T01:21:26.747Z,9.70
2022-11-02T01:24:18.699Z,11.48
2022-11-02T01:27:07.490Z,11.00
2022-11-02T01:29:56.670Z,10.45
2022-11-02T01:32:46.597Z,9.25
2022-11-02T01:35:39.141Z,10.20
2022-11-02T01:38:28.380Z,10.02
2022-11-02T01:41:18.981Z,9.68
2022-11-02T01:44:32.131Z,9.13
2022-11-02T01:47:27.148Z,8.18
2022-11-02T01:50:27.621Z,9.07
2022-11-02T01:53:16.851Z,9.13
2022-11-02T01:56:07.626Z,9.30
2022-11-02T01:59:01.696Z,10.10
2022-11-02T02:01:51.782Z,8.77
2022-11-02T02:04:41.613Z,8.68
2022-11-02T02:07:32.829Z,9.25
2022-11-02T02:10:21.790Z,7.05
2022-11-02T02:13:11.046Z,7.43
2022-11-02T02:16:20.727Z,7.25
2022-11-02T02:19:45.415Z,7.95
2022-11-02T02:22:47.849Z,7.43
2022-11-02T02:25:55.448Z,7.50
2022-11-02T02:29:15.729Z,7.28
2022-11-02T02:32:13.681Z,7.22
2022-11-02T02:35:35.631Z,7.50
2022-11-02T02:38:36.349Z,7.90
2022-11-02T02:41:40.397Z,7.22
2022-11-02T02:44:32.991Z,7.78
2022-11-02T02:47:25.321Z,7.57
2022-11-02T02:50:23.541Z,8.57
2022-11-02T02:53:14.098Z,7.75
2022-11-02T02:56:07.093Z,8.38
2022-11-02T02:59:06.550Z,8.90
2022-11-02T03:01:56.794Z,7.95
2022-11-02T03:04:46.607Z,9.30
2022-11-02T03:07:36.179Z,9.38
2022-11-02T03:10:51.714Z,10.40
2022-11-02T03:13:52.279Z,10.30
2022-11-02T03:17:13.345Z,11.80
2022-11-02T03:20:35.073Z,13.55
2022-11-02T03:23:32.412Z,13.75
2022-11-02T03:26:44.671Z,13.80
2022-11-02T03:30:00.967Z,13.60
2022-11-02T03:33:10.330Z,13.50
2022-11-02T03:36:09.588Z,13.38
2022-11-02T03:39:03.194Z,16.17
2022-11-02T03:41:53.071Z,14.30
2022-11-02T03:44:43.468Z,14.25
2022-11-02T03:47:35.298Z,14.57
2022-11-02T03:50:28.917Z,13.27
2022-11-02T03:53:42.016Z,12.55
2022-11-02T03:56:39.780Z,10.43
2022-11-02T04:03:45.953Z,9.27
2022-11-02T04:06:35.752Z,9.30
2022-11-02T04:09:29.698Z,9.57
2022-11-02T04:12:38.837Z,9.90
2022-11-02T04:15:29.444Z,7.65
2022-11-02T04:18:37.011Z,6.95
2022-11-02T04:21:26.441Z,6.50
2022-11-02T04:24:35.522Z,7.97
2022-11-02T04:27:24.975Z,8.75
2022-11-02T04:30:17.335Z,8.68
2022-11-02T04:33:24.937Z,8.55
2022-11-02T04:36:24.208Z,9.70
2022-11-02T04:39:17.651Z,9.80
2022-11-02T04:42:07.003Z,9.65
2022-11-02T04:45:04.090Z,9.70
2022-11-02T04:48:13.680Z,10.00
2022-11-02T04:51:02.629Z,8.43
2022-11-02T04:53:54.708Z,7.32
2022-11-02T04:56:45.148Z,7.95
2022-11-02T04:59:34.893Z,9.10
2022-11-02T05:02:25.240Z,9.63
2022-11-02T05:05:14.472Z,9.57
2022-11-02T05:08:05.028Z,10.70
2022-11-02T05:10:58.473Z,7.97
2022-11-02T05:13:49.644Z,9.55
2022-11-02T05:16:41.010Z,10.57
2022-11-02T05:19:32.583Z,10.02
2022-11-02T05:22:24.800Z,11.88
2022-11-02T05:25:15.578Z,12.52
2022-11-02T05:28:04.503Z,11.65
2022-11-02T05:30:54.488Z,13.13
2022-11-02T05:33:43.928Z,15.07
2022-11-02T05:36:36.623Z,15.70
2022-11-02T05:39:25.835Z,13.10
2022-11-02T05:42:15.951Z,11.63
2022-11-02T05:45:05.440Z,10.43
2022-11-02T05:47:54.775Z,11.43
2022-11-02T05:50:43.176Z,9.48
2022-11-02T05:53:34.666Z,10.43
2022-11-02T05:56:25.185Z,10.73
2022-11-02T05:59:14.352Z,9.50
2022-11-02T06:02:03.731Z,9.25
2022-11-02T06:04:53.273Z,9.32
2022-11-02T06:07:42.801Z,10.30
2022-11-02T06:10:32.632Z,11.40
2022-11-02T06:13:21.879Z,11.40
2022-11-02T06:16:12.335Z,11.18
2022-11-02T06:19:01.165Z,11.35
2022-11-02T06:21:50.451Z,10.60
2022-11-02T06:24:39.678Z,12.10
2022-11-02T06:27:28.287Z,12.57
2022-11-02T06:30:17.502Z,12.60
2022-11-02T06:33:07.360Z,12.15
2022-11-02T06:35:57.542Z,12.07
2022-11-02T06:38:47.038Z,11.02
2022-11-02T06:41:36.303Z,12.70
2022-11-02T06:44:25.520Z,11.07
2022-11-02T06:47:14.920Z,12.88
2022-11-02T06:50:09.308Z,11.05
2022-11-02T06:52:58.173Z,10.18
2022-11-02T06:55:47.789Z,10.27
2022-11-02T06:58:36.779Z,11.10
2022-11-02T07:01:28.913Z,11.18
2022-11-02T07:04:18.158Z,10.65
2022-11-02T07:07:07.522Z,10.57
2022-11-02T07:09:59.046Z,10.80
2022-11-02T07:12:48.164Z,10.02
2022-11-02T07:15:38.173Z,10.20
2022-11-02T07:18:28.427Z,10.90
2022-11-02T07:24:09.202Z,22.20
2022-11-02T07:26:59.317Z,12.32
2022-11-02T07:29:48.551Z,10.73
2022-11-02T07:32:44.869Z,9.60
2022-11-02T07:35:35.209Z,9.68
2022-11-02T07:38:24.056Z,9.45
2022-11-02T07:41:13.114Z,9.38
2022-11-02T07:44:02.637Z,10.05
2022-11-02T07:46:55.597Z,9.63
2022-11-02T07:49:44.536Z,8.05
2022-11-02T07:52:33.723Z,9.25
2022-11-02T07:55:30.812Z,10.48
2022-11-02T07:58:20.760Z,9.70
2022-11-02T08:01:10.474Z,11.18
2022-11-02T08:03:59.803Z,11.38
2022-11-02T08:06:49.427Z,10.80
2022-11-02T08:09:38.066Z,10.57
2022-11-02T08:12:27.845Z,9.50
2022-11-02T08:15:16.995Z,9.23
2022-11-02T08:18:13.711Z,8.65
2022-11-02T08:21:03.088Z,8.75
2022-11-02T08:23:58.221Z,9.13
2022-11-02T08:26:49.681Z,9.20
2022-11-02T08:29:43.520Z,9.48
2022-11-02T08:32:32.892Z,10.25
2022-11-02T08:35:22.632Z,9.93
2022-11-02T08:38:11.645Z,9.00
2022-11-02T08:41:01.920Z,10.02
2022-11-02T08:43:50.755Z,9.38
2022-11-02T08:46:39.592Z,11.20
2022-11-02T08:49:28.982Z,10.50
2022-11-02T08:52:20.861Z,9.68
2022-11-02T08:55:10.268Z,8.40
2022-11-02T08:58:02.216Z,8.25
2022-11-02T09:00:54.331Z,8.43
2022-11-02T09:03:44.047Z,8.45
2022-11-02T09:06:33.732Z,8.85
2022-11-02T09:09:22.713Z,8.60
2022-11-02T09:12:11.748Z,8.48
2022-11-02T09:15:04.352Z,8.63
2022-11-02T09:17:54.984Z,12.63
2022-11-02T09:20:43.841Z,9.32
2022-11-02T09:23:32.955Z,10.48
2022-11-02T09:26:22.048Z,9.05
2022-11-02T09:29:11.547Z,9.80
2022-11-02T09:32:00.939Z,9.60
2022-11-02T09:34:51.508Z,9.25
2022-11-02T09:37:40.551Z,9.55
2022-11-02T09:40:53.901Z,8.65
2022-11-02T09:43:58.287Z,10.43
2022-11-02T09:46:53.264Z,9.65
2022-11-02T09:50:00.044Z,9.45
2022-11-02T09:52:55.698Z,11.45
2022-11-02T09:55:56.711Z,14.80
2022-11-02T09:58:49.255Z,11.90
2022-11-02T10:02:00.297Z,11.65
2022-11-02T10:05:10.262Z,13.30
2022-11-02T10:08:13.680Z,11.95
2022-11-02T10:11:29.018Z,12.60
2022-11-02T10:14:35.607Z,12.95
2022-11-02T10:17:30.977Z,12.32
2022-11-02T10:20:31.214Z,12.27
2022-11-02T10:23:27.516Z,11.90
2022-11-02T10:26:24.135Z,10.98
2022-11-02T10:29:28.238Z,22.48
2022-11-02T10:32:18.009Z,10.25
2022-11-02T10:35:45.735Z,13.35
2022-11-02T10:39:18.035Z,11.18
2022-11-02T10:42:22.666Z,12.25
2022-11-02T10:45:17.850Z,10.65
2022-11-02T10:48:36.595Z,11.38
2022-11-02T10:51:25.828Z,14.43
2022-11-02T10:54:20.636Z,11.27
2022-11-02T10:57:16.085Z,11.48
2022-11-02T11:00:30.451Z,9.45
2022-11-02T11:03:20.855Z,13.20
2022-11-02T11:06:12.170Z,12.60
2022-11-02T11:09:13.648Z,16.90
2022-11-02T11:12:23.095Z,15.27
2022-11-02T11:21:51.008Z,17.60
2022-11-02T11:24:40.121Z,17.92
2022-11-02T11:27:29.532Z,18.05
2022-11-02T11:30:58.854Z,20.20
2022-11-02T11:34:01.099Z,25.98
2022-11-02T11:36:50.251Z,26.33
2022-11-02T11:39:41.952Z,21.88
2022-11-02T11:42:35.270Z,22.33
2022-11-02T11:45:28.252Z,19.92
2022-11-02T11:48:26.373Z,19.63
2022-11-02T11:51:30.392Z,21.17
2022-11-02T11:54:25.578Z,20.25
2022-11-02T11:57:34.711Z,21.17
2022-11-02T12:00:29.252Z,24.02
2022-11-02T12:03:18.353Z,33.35
2022-11-02T12:06:19.111Z,27.70
2022-11-02T12:09:26.747Z,20.80
2022-11-02T12:12:45.302Z,21.65
2022-11-02T12:15:53.191Z,20.67
2022-11-02T12:19:29.862Z,20.92
2022-11-02T12:22:42.818Z,20.38
2022-11-02T12:25:50.057Z,20.00
2022-11-02T12:28:46.967Z,20.05
2022-11-02T12:31:43.709Z,18.83
2022-11-02T12:35:27.188Z,18.85
2022-11-02T12:38:14.329Z,18.77
2022-11-02T12:41:31.581Z,18.63
2022-11-02T12:44:42.030Z,19.02
2022-11-02T12:48:07.617Z,18.90
2022-11-02T12:51:34.186Z,19.50
2022-11-02T12:54:41.609Z,19.35
2022-11-02T12:57:54.888Z,19.33
2022-11-02T13:00:53.687Z,17.98
2022-11-02T13:04:05.775Z,20.40
2022-11-02T13:07:13.639Z,20.55
2022-11-02T13:10:26.973Z,19.25
2022-11-02T13:16:58.882Z,19.73
2022-11-02T13:20:06.767Z,18.73
2022-11-02T13:27:02.170Z,24.63
2022-11-02T13:30:20.891Z,21.13
2022-11-02T13:37:04.157Z,21.73
2022-11-02T13:40:01.815Z,20.65
2022-11-02T13:43:14.752Z,20.73
2022-11-02T13:46:46.197Z,20.33
2022-11-02T13:49:48.679Z,19.42
2022-11-02T13:52:50.505Z,22.58
2022-11-02T13:56:25.435Z,20.63
2022-11-02T13:59:43.110Z,20.65
2022-11-02T14:02:40.116Z,21.48
2022-11-02T14:05:47.554Z,20.35
2022-11-02T14:09:00.695Z,20.27
2022-11-02T14:12:24.492Z,19.60
2022-11-02T14:15:41.785Z,19.65
2022-11-02T14:18:38.264Z,19.98
2022-11-02T14:22:13.305Z,18.25
2022-11-02T14:25:20.483Z,17.77
2022-11-02T14:28:29.838Z,18.67
2022-11-02T14:31:43.621Z,17.48
2022-11-02T14:38:33.731Z,18.92
2022-11-02T14:41:59.712Z,17.25
2022-11-02T14:45:20.601Z,17.55
2022-11-02T14:48:25.710Z,17.45
2022-11-02T14:51:50.590Z,16.67
2022-11-02T14:55:15.553Z,17.20
2022-11-02T14:58:14.807Z,17.42
2022-11-02T15:01:10.149Z,17.17
2022-11-02T15:04:23.801Z,18.52
2022-11-02T15:07:50.433Z,18.48
2022-11-02T15:10:56.430Z,18.42
2022-11-02T15:13:55.929Z,20.10
2022-11-02T15:16:50.235Z,19.52
2022-11-02T15:19:59.421Z,18.23
2022-11-02T15:26:42.245Z,19.00
2022-11-02T15:29:49.223Z,19.77
2022-11-02T15:33:01.239Z,19.88
2022-11-02T15:35:58.407Z,19.38
2022-11-02T15:38:57.062Z,19.48
2022-11-02T15:42:34.219Z,18.92
2022-11-02T15:46:01.152Z,19.15
2022-11-02T15:49:17.457Z,20.77
2022-11-02T15:52:15.370Z,23.17
2022-11-02T15:55:22.058Z,24.23
2022-11-02T15:58:43.067Z,25.88
2022-11-02T16:01:32.804Z,26.10
2022-11-02T16:04:23.421Z,26.55
2022-11-02T16:07:16.716Z,26.00
2022-11-02T16:10:24.005Z,25.23
2022-11-02T16:13:18.992Z,25.52
2022-11-02T16:16:09.717Z,25.70
2022-11-02T16:18:59.392Z,25.48
2022-11-02T16:21:49.889Z,24.80
2022-11-02T16:24:44.661Z,26.38
2022-11-02T16:27:33.476Z,25.67
2022-11-02T16:30:24.272Z,25.58
2022-11-02T16:33:14.001Z,25.17
2022-11-02T16:36:07.337Z,26.48
2022-11-02T16:39:32.978Z,26.23
2022-11-02T16:42:26.298Z,24.25
2022-11-02T16:45:37.111Z,24.88
2022-11-02T16:48:31.786Z,25.08
2022-11-02T16:51:21.136Z,24.52
2022-11-02T16:54:31.360Z,24.95
2022-11-02T16:57:23.745Z,24.67
2022-11-02T17:00:22.835Z,24.58
2022-11-02T17:03:16.535Z,24.98
2022-11-02T17:06:08.254Z,25.13
2022-11-02T17:08:58.722Z,24.90
2022-11-02T17:11:47.691Z,24.67
2022-11-02T17:14:36.937Z,24.55
2022-11-02T17:17:27.322Z,23.88
2022-11-02T17:20:17.881Z,24.20
2022-11-02T17:23:09.157Z,24.20
2022-11-02T17:26:26.503Z,25.65
2022-11-02T17:29:27.630Z,24.35
2022-11-02T17:32:17.521Z,25.40
2022-11-02T17:35:08.188Z,25.42
2022-11-02T17:37:59.169Z,24.02
2022-11-02T17:40:53.510Z,24.73
2022-11-02T17:43:42.941Z,24.17
2022-11-02T17:46:34.679Z,24.63
2022-11-02T17:49:23.742Z,23.52
2022-11-02T17:52:15.782Z,23.52
2022-11-02T17:55:05.128Z,24.30
2022-11-02T17:57:56.084Z,25.63
2022-11-02T18:00:46.160Z,23.17
2022-11-02T18:03:35.813Z,24.58
2022-11-02T18:06:25.438Z,24.98
2022-11-02T18:09:20.609Z,25.73
2022-11-02T18:12:17.958Z,25.77
2022-11-02T18:15:22.366Z,26.67
2022-11-02T18:18:11.371Z,26.90
2022-11-02T18:21:00.528Z,26.60
2022-11-02T18:23:49.914Z,26.83
2022-11-02T18:26:42.750Z,26.25
2022-11-02T18:29:35.779Z,26.02
2022-11-02T18:32:24.818Z,25.05
2022-11-02T18:35:16.962Z,24.50
2022-11-02T18:38:06.514Z,24.33
2022-11-02T18:41:30.789Z,24.33
2022-11-02T18:44:19.668Z,23.65
2022-11-02T18:47:10.398Z,22.77
2022-11-02T18:50:01.100Z,25.30
2022-11-02T18:52:52.326Z,24.00
2022-11-02T18:55:42.543Z,24.75
2022-11-02T18:58:32.254Z,24.02
2022-11-02T19:01:22.405Z,22.67
2022-11-02T19:04:17.181Z,21.98
2022-11-02T19:07:25.363Z,23.40
2022-11-02T19:10:17.708Z,22.77
2022-11-02T19:13:07.162Z,23.10
2022-11-02T19:15:56.433Z,23.65
2022-11-02T19:18:46.421Z,24.92
2022-11-02T19:21:36.472Z,22.67
2022-11-02T19:24:26.297Z,22.83
2022-11-02T19:27:24.394Z,23.13
2022-11-02T19:30:14.721Z,23.30
2022-11-02T19:33:04.097Z,23.35
2022-11-02T19:35:57.923Z,22.25
2022-11-02T19:39:05.639Z,22.38
2022-11-02T19:41:55.403Z,24.00
2022-11-02T19:44:44.521Z,22.48
2022-11-02T19:47:45.513Z,23.65
2022-11-02T19:50:34.842Z,24.20
2022-11-02T19:53:24.113Z,21.85
2022-11-02T19:56:15.038Z,23.35
2022-11-02T19:59:05.131Z,23.48
2022-11-02T20:01:54.293Z,22.92
2022-11-02T20:04:48.718Z,21.50
2022-11-02T20:07:37.930Z,22.25
2022-11-02T20:10:27.654Z,21.23
2022-11-02T20:13:16.719Z,22.35
2022-11-02T20:16:06.810Z,22.70
2022-11-02T20:18:56.976Z,23.02
2022-11-02T20:21:45.996Z,23.98
2022-11-02T20:24:34.867Z,23.98
2022-11-02T20:27:24.230Z,22.35
2022-11-02T20:30:23.295Z,22.13
2022-11-02T20:33:13.031Z,23.30
2022-11-02T20:36:05.947Z,23.20
2022-11-02T20:38:55.285Z,24.67
2022-11-02T20:41:44.981Z,25.05
2022-11-02T20:44:34.972Z,24.00
2022-11-02T20:47:24.562Z,24.05
2022-11-02T20:50:16.625Z,23.90
2022-11-02T20:53:06.868Z,23.45
2022-11-02T20:55:59.995Z,24.13
2022-11-02T20:58:55.686Z,22.85
2022-11-02T21:01:44.929Z,23.35
2022-11-02T21:04:34.719Z,23.88
2022-11-02T21:07:26.612Z,24.77
2022-11-02T21:10:16.712Z,23.52
2022-11-02T21:13:23.933Z,24.60
2022-11-02T21:16:13.303Z,25.02
2022-11-02T21:19:02.736Z,23.45
2022-11-02T21:21:56.562Z,23.40
2022-11-02T21:24:49.039Z,23.42
2022-11-02T21:27:38.015Z,24.00
2022-11-02T21:30:27.468Z,23.55
2022-11-02T21:33:17.016Z,23.20
2022-11-02T21:36:06.543Z,24.15
2022-11-02T21:38:56.851Z,23.48
2022-11-02T21:41:46.207Z,29.63
2022-11-02T21:44:35.359Z,27.52
2022-11-02T21:47:24.758Z,28.20
2022-11-02T21:50:13.628Z,26.92
2022-11-02T21:53:06.627Z,26.88
2022-11-02T21:56:04.045Z,25.83
2022-11-02T21:58:53.514Z,25.63
2022-11-02T22:01:51.046Z,27.15
2022-11-02T22:04:42.669Z,25.85
2022-11-02T22:07:54.835Z,26.48
2022-11-02T22:10:48.371Z,26.25
2022-11-02T22:13:40.065Z,26.80
2022-11-02T22:16:35.627Z,26.67
2022-11-02T22:19:26.557Z,27.52
2022-11-02T22:22:16.952Z,26.58
2022-11-02T22:25:07.404Z,29.13
2022-11-02T22:28:01.326Z,28.88
2022-11-02T22:30:51.222Z,31.30
2022-11-02T22:33:41.245Z,29.38
2022-11-02T22:36:32.669Z,35.78
2022-11-02T22:39:22.132Z,37.30
2022-11-02T22:42:11.626Z,34.45
2022-11-02T22:45:01.773Z,34.05
2022-11-02T22:47:51.092Z,31.25
2022-11-02T22:50:43.037Z,31.48
2022-11-02T22:53:32.016Z,33.90
2022-11-02T22:56:23.844Z,32.55
2022-11-02T22:59:14.071Z,32.92
2022-11-02T23:02:05.884Z,34.85
2022-11-02T23:04:56.343Z,35.15
2022-11-02T23:07:46.003Z,35.80
2022-11-02T23:10:56.278Z,35.90
2022-11-02T23:13:46.898Z,34.53
2022-11-02T23:16:38.528Z,34.38
2022-11-02T23:19:30.293Z,36.83
2022-11-02T23:22:34.590Z,36.72
2022-11-02T23:25:23.931Z,36.33
2022-11-02T23:28:31.061Z,40.10
2022-11-02T23:31:38.064Z,42.03
2022-11-02T23:34:29.976Z,42.40
2022-11-02T23:37:20.279Z,46.60
2022-11-02T23:40:10.089Z,49.38
2022-11-02T23:42:59.060Z,48.53
2022-11-02T23:45:48.690Z,49.50
2022-11-02T23:48:39.263Z,51.22
2022-11-02T23:51:51.385Z,53.10
2022-11-02T23:54:58.850Z,51.72
2022-11-02T23:57:48.464Z,59.28
